createdAt,value
2022-12-12T00:04:00.198Z,17.85
2022-12-12T00:06:31.101Z,24.25
2022-12-12T00:10:03.649Z,24.98
2022-12-12T00:16:45.498Z,25.80
2022-12-12T00:20:05.443Z,24.17
2022-12-12T00:22:49.375Z,20.50
2022-12-12T00:25:38.746Z,18.95
2022-12-12T00:28:06.513Z,16.58
2022-12-12T00:31:15.556Z,17.10
2022-12-12T00:33:50.286Z,15.47
2022-12-12T00:36:52.997Z,18.95
2022-12-12T00:42:22.922Z,15.80
2022-12-12T00:44:49.666Z,17.80
2022-12-12T00:47:18.627Z,16.40
2022-12-12T00:50:09.645Z,16.88
2022-12-12T00:52:37.491Z,18.58
2022-12-12T00:55:05.561Z,20.40
2022-12-12T00:57:35.945Z,18.67
2022-12-12T01:00:06.439Z,19.33
2022-12-12T01:02:34.543Z,18.38
2022-12-12T01:05:03.190Z,18.95
2022-12-12T01:07:30.158Z,20.40
2022-12-12T01:09:57.088Z,15.80
2022-12-12T01:12:23.920Z,16.05
2022-12-12T01:15:20.280Z,14.07
2022-12-12T01:19:27.838Z,15.93
2022-12-12T01:21:54.545Z,14.30
2022-12-12T01:24:21.558Z,15.85
2022-12-12T01:26:48.469Z,17.35
2022-12-12T01:29:32.576Z,14.27
2022-12-12T01:32:09.249Z,16.98
2022-12-12T01:38:50.317Z,12.80
2022-12-12T01:41:55.677Z,13.32
2022-12-12T01:45:15.072Z,17.75
2022-12-12T01:47:51.019Z,16.60
2022-12-12T01:50:18.282Z,17.02
2022-12-12T01:53:14.988Z,17.20
2022-12-12T01:55:43.288Z,15.13
2022-12-12T02:11:47.293Z,18.13
2022-12-12T02:12:33.636Z,20.58
2022-12-12T02:15:04.188Z,27.75
2022-12-12T02:18:21.121Z,24.08
2022-12-12T02:21:52.770Z,28.10
2022-12-12T02:25:25.842Z,25.48
2022-12-12T02:35:41.983Z,26.40
2022-12-12T02:38:50.476Z,33.53
2022-12-12T02:42:16.694Z,27.40
2022-12-12T02:48:49.140Z,30.45
2022-12-12T02:51:57.310Z,29.52
2022-12-12T02:58:32.469Z,27.50
2022-12-12T03:02:01.510Z,28.58
2022-12-12T04:11:59.221Z,28.90
2022-12-12T04:22:49.533Z,31.77
2022-12-12T04:25:32.891Z,28.25
2022-12-12T04:28:05.725Z,32.70
2022-12-12T04:30:35.233Z,25.52
2022-12-12T04:33:13.099Z,27.13
2022-12-12T04:35:45.504Z,29.00
2022-12-12T04:38:42.620Z,23.92
2022-12-12T04:41:11.989Z,24.90
2022-12-12T04:43:43.459Z,31.67
2022-12-12T04:46:18.156Z,24.98
2022-12-12T04:48:55.358Z,29.83
2022-12-12T04:51:33.769Z,27.55
2022-12-12T04:54:29.420Z,25.58
2022-12-12T04:57:00.943Z,30.80
2022-12-12T04:59:28.974Z,33.50
2022-12-12T05:02:02.597Z,25.70
2022-12-12T05:04:32.350Z,27.83
2022-12-12T05:07:10.903Z,29.70
2022-12-12T05:09:38.495Z,29.88
2022-12-12T05:12:05.623Z,26.23
2022-12-12T05:14:33.018Z,28.77
2022-12-12T05:17:07.857Z,29.65
2022-12-12T05:23:57.688Z,26.80
2022-12-12T05:26:29.283Z,26.23
2022-12-12T05:30:12.848Z,28.13
2022-12-12T05:43:40.080Z,32.08
2022-12-12T05:46:56.468Z,30.33
2022-12-12T05:49:50.269Z,30.40
2022-12-12T05:52:22.810Z,31.15
2022-12-12T05:55:04.089Z,32.33
2022-12-12T05:57:30.763Z,30.48
2022-12-12T06:00:25.492Z,29.83
2022-12-12T06:02:54.781Z,35.10
2022-12-12T06:06:04.095Z,36.65
2022-12-12T06:08:35.061Z,35.38
2022-12-12T06:23:16.494Z,29.92
2022-12-12T06:26:04.524Z,31.08
2022-12-12T06:28:34.642Z,25.80
2022-12-12T06:33:36.525Z,28.90
2022-12-12T06:36:09.292Z,26.52
2022-12-12T06:38:36.333Z,31.70
2022-12-12T06:41:12.610Z,30.13
2022-12-12T06:44:37.247Z,29.75
2022-12-12T06:47:03.910Z,24.02
2022-12-12T06:49:30.436Z,31.02
2022-12-12T07:31:16.523Z,25.92
2022-12-12T07:42:03.808Z,23.00
2022-12-12T07:48:45.328Z,22.58
2022-12-12T07:58:49.262Z,24.70
2022-12-12T08:02:56.309Z,24.25
2022-12-12T08:05:39.713Z,27.77
2022-12-12T08:35:58.194Z,16.10
2022-12-12T08:50:32.797Z,19.30
2022-12-12T08:54:04.537Z,17.70
2022-12-12T09:00:53.147Z,16.35
2022-12-12T09:03:23.535Z,17.58
2022-12-12T09:05:54.116Z,18.95
2022-12-12T09:08:20.625Z,17.17
2022-12-12T09:10:50.133Z,15.43
2022-12-12T09:13:17.109Z,12.13
2022-12-12T09:15:43.694Z,14.48
2022-12-12T09:18:10.167Z,15.55
2022-12-12T09:20:36.660Z,18.85
2022-12-12T09:23:03.238Z,9.43
2022-12-12T09:25:29.734Z,11.10
2022-12-12T09:27:56.584Z,9.35
2022-12-12T09:30:23.283Z,8.95
2022-12-12T09:32:49.856Z,12.52
2022-12-12T09:35:16.651Z,8.70
2022-12-12T09:37:43.183Z,7.60
2022-12-12T09:40:18.010Z,8.90
2022-12-12T09:42:51.389Z,9.27
2022-12-12T09:45:19.616Z,6.47
2022-12-12T09:47:49.543Z,7.70
2022-12-12T09:50:26.382Z,7.15
2022-12-12T09:52:56.662Z,6.63
2022-12-12T09:55:26.831Z,6.15
2022-12-12T09:58:02.578Z,6.38
2022-12-12T10:00:35.350Z,6.15
2022-12-12T10:03:19.232Z,6.25
2022-12-12T10:09:28.581Z,5.75
2022-12-12T10:11:56.733Z,5.30
2022-12-12T10:14:43.745Z,6.97
2022-12-12T10:17:37.697Z,6.03
2022-12-12T10:20:24.069Z,9.13
2022-12-12T10:23:07.134Z,6.88
2022-12-12T10:25:51.219Z,6.93
2022-12-12T10:28:19.947Z,5.93
2022-12-12T10:31:02.215Z,6.22
2022-12-12T10:33:47.838Z,5.28
2022-12-12T10:36:26.368Z,7.50
2022-12-12T10:39:14.611Z,5.80
2022-12-12T10:41:48.812Z,6.13
2022-12-12T10:44:15.281Z,5.85
2022-12-12T10:46:58.043Z,7.13
2022-12-12T10:49:25.015Z,5.68
2022-12-12T10:51:52.516Z,5.30
2022-12-12T10:54:26.199Z,5.70
2022-12-12T10:57:07.781Z,6.75
2022-12-12T10:59:49.548Z,7.38
2022-12-12T11:02:38.266Z,6.85
2022-12-12T11:05:28.026Z,8.32
2022-12-12T11:08:04.605Z,7.38
2022-12-12T11:10:36.816Z,6.50
2022-12-12T11:13:09.404Z,7.00
2022-12-12T11:15:44.160Z,7.55
2022-12-12T11:18:16.121Z,6.32
2022-12-12T11:21:07.910Z,7.10
2022-12-12T11:23:36.500Z,7.45
2022-12-12T11:26:11.074Z,10.05
2022-12-12T11:28:38.806Z,8.15
2022-12-12T11:31:09.061Z,7.47
2022-12-12T11:33:44.808Z,8.07
2022-12-12T11:36:16.905Z,7.53
2022-12-12T11:38:50.559Z,6.45
2022-12-12T11:41:17.730Z,7.88
2022-12-12T11:43:44.174Z,5.38
2022-12-12T11:46:13.506Z,5.03
2022-12-12T11:48:47.368Z,7.03
2022-12-12T11:51:29.826Z,5.65
2022-12-12T11:53:56.389Z,6.88
2022-12-12T11:56:49.120Z,5.55
2022-12-12T11:59:35.412Z,6.72
2022-12-12T12:02:27.230Z,7.22
2022-12-12T12:05:12.028Z,7.65
2022-12-12T12:08:27.201Z,6.35
2022-12-12T12:11:27.932Z,6.90
2022-12-12T12:14:05.543Z,6.10
2022-12-12T12:16:59.772Z,5.68
2022-12-12T12:19:47.375Z,4.90
2022-12-12T12:22:25.941Z,6.07
2022-12-12T12:25:05.555Z,5.60
2022-12-12T12:27:43.003Z,5.68
2022-12-12T12:30:25.572Z,5.90
2022-12-12T12:33:18.631Z,5.70
2022-12-12T12:35:48.111Z,5.63
2022-12-12T12:38:21.898Z,5.57
2022-12-12T12:41:17.163Z,5.50
2022-12-12T12:44:17.613Z,5.45
2022-12-12T12:46:49.267Z,5.50
2022-12-12T12:49:23.477Z,6.50
2022-12-12T12:51:59.136Z,8.35
2022-12-12T12:54:33.884Z,10.63
2022-12-12T12:57:20.748Z,8.75
2022-12-12T12:59:51.803Z,9.95
2022-12-12T13:02:42.862Z,9.63
2022-12-12T13:05:14.942Z,7.00
2022-12-12T13:08:17.667Z,9.55
2022-12-12T13:10:50.486Z,7.93
2022-12-12T13:13:44.981Z,7.72
2022-12-12T13:16:15.630Z,9.63
2022-12-12T13:18:46.187Z,10.07
2022-12-12T13:22:00.665Z,12.95
2022-12-12T13:24:43.139Z,10.90
2022-12-12T13:27:17.342Z,12.18
2022-12-12T13:29:50.735Z,12.35
2022-12-12T13:32:45.079Z,13.25
2022-12-12T13:35:17.117Z,14.10
2022-12-12T13:37:54.891Z,13.57
2022-12-12T13:40:26.937Z,12.93
2022-12-12T13:42:57.352Z,16.15
2022-12-12T13:45:40.474Z,15.07
2022-12-12T13:48:31.017Z,14.75
2022-12-12T13:51:53.445Z,14.70
2022-12-12T13:54:19.905Z,15.35
2022-12-12T13:56:58.389Z,23.05
2022-12-12T13:59:27.721Z,14.57
2022-12-12T14:02:00.042Z,13.13
2022-12-12T14:04:31.665Z,12.82
2022-12-12T14:07:12.241Z,13.48
2022-12-12T14:09:48.300Z,12.57
2022-12-12T14:12:29.221Z,18.10
2022-12-12T14:15:06.074Z,17.80
2022-12-12T14:17:42.252Z,15.02
2022-12-12T14:20:37.253Z,17.77
2022-12-12T14:23:08.404Z,18.80
2022-12-12T14:28:32.574Z,16.77
2022-12-12T14:30:59.062Z,13.70
2022-12-12T14:33:49.085Z,17.90
2022-12-12T14:36:40.854Z,17.45
2022-12-12T14:39:10.321Z,16.83
2022-12-12T14:41:39.836Z,21.45
2022-12-12T14:44:36.616Z,19.83
2022-12-12T14:47:07.392Z,16.85
2022-12-12T14:49:33.899Z,16.77
2022-12-12T14:52:00.593Z,15.65
2022-12-12T14:54:27.425Z,18.52
2022-12-12T14:56:59.095Z,18.85
2022-12-12T14:59:29.797Z,17.67
2022-12-12T15:02:05.359Z,17.77
2022-12-12T15:04:35.200Z,18.90
2022-12-12T15:07:07.025Z,13.80
2022-12-12T15:09:38.831Z,14.27
2022-12-12T15:12:08.264Z,17.83
2022-12-12T15:14:34.801Z,16.27
2022-12-12T15:17:07.154Z,14.32
2022-12-12T15:19:41.264Z,16.20
2022-12-12T15:22:22.042Z,17.63
2022-12-12T15:24:48.783Z,18.98
2022-12-12T15:27:41.571Z,17.05
2022-12-12T15:30:43.611Z,18.88
2022-12-12T15:33:22.447Z,19.13
2022-12-12T15:36:01.822Z,17.67
2022-12-12T15:38:29.695Z,17.63
2022-12-12T15:40:59.730Z,18.02
2022-12-12T15:45:55.012Z,17.50
2022-12-12T15:48:22.719Z,22.42
2022-12-12T15:50:59.286Z,18.58
2022-12-12T15:53:31.444Z,22.65
2022-12-12T15:56:04.827Z,28.33
2022-12-12T15:58:35.182Z,38.53
2022-12-12T16:01:03.354Z,28.10
2022-12-12T16:03:29.947Z,26.88
2022-12-12T16:06:14.026Z,28.55
2022-12-12T16:08:54.321Z,25.48
2022-12-12T16:11:38.844Z,20.23
2022-12-12T16:14:23.754Z,49.53
2022-12-12T16:16:53.243Z,46.58
2022-12-12T16:19:38.401Z,37.50
2022-12-12T16:22:13.620Z,26.73
2022-12-12T16:24:55.545Z,33.00
2022-12-12T16:27:22.537Z,26.35
2022-12-12T16:29:49.085Z,29.23
2022-12-12T16:32:19.005Z,62.20
2022-12-12T16:37:14.852Z,54.28
2022-12-12T16:39:42.053Z,32.75
2022-12-12T16:42:16.544Z,39.78
2022-12-12T16:44:43.723Z,30.25
2022-12-12T16:47:14.521Z,25.13
2022-12-12T16:49:41.285Z,32.28
2022-12-12T16:52:09.769Z,30.88
2022-12-12T16:54:36.230Z,34.10
2022-12-12T16:57:02.749Z,24.05
2022-12-12T16:59:29.240Z,21.95
2022-12-12T17:01:55.767Z,23.50
2022-12-12T17:04:23.926Z,25.35
2022-12-12T17:06:50.904Z,24.15
2022-12-12T17:09:17.702Z,28.10
2022-12-12T17:11:44.238Z,30.17
2022-12-12T17:14:19.757Z,27.65
2022-12-12T17:16:46.335Z,27.42
2022-12-12T17:19:12.867Z,33.50
2022-12-12T17:21:39.390Z,26.20
2022-12-12T17:24:07.023Z,29.35
2022-12-12T17:26:35.146Z,31.52
2022-12-12T17:29:02.550Z,27.55
2022-12-12T17:31:29.167Z,35.75
2022-12-12T17:33:55.737Z,29.58
2022-12-12T17:36:22.291Z,34.58
2022-12-12T17:38:49.109Z,27.13
2022-12-12T17:41:15.754Z,26.95
2022-12-12T17:43:42.313Z,31.00
2022-12-12T17:46:15.021Z,28.05
2022-12-12T17:48:43.661Z,31.27
2022-12-12T17:51:12.665Z,31.13
2022-12-12T17:53:39.877Z,27.83
2022-12-12T17:56:14.995Z,23.15
2022-12-12T17:58:44.157Z,24.83
2022-12-12T18:01:12.517Z,28.08
2022-12-12T18:03:39.239Z,30.90
2022-12-12T18:06:06.114Z,27.98
2022-12-12T18:08:32.937Z,24.10
2022-12-12T18:10:59.571Z,27.42
2022-12-12T18:13:26.741Z,23.33
2022-12-12T18:15:55.495Z,25.70
2022-12-12T18:18:22.268Z,27.52
2022-12-12T18:20:49.098Z,23.02
2022-12-12T18:23:15.814Z,28.65
2022-12-12T18:25:42.389Z,24.35
2022-12-12T18:28:12.249Z,26.67
2022-12-12T18:33:10.197Z,24.05
2022-12-12T18:35:36.873Z,23.65
2022-12-12T18:38:03.473Z,20.75
2022-12-12T18:40:29.939Z,17.80
2022-12-12T18:42:56.462Z,18.38
2022-12-12T18:45:24.062Z,21.88
2022-12-12T18:47:50.686Z,21.90
2022-12-12T18:50:17.250Z,25.05
2022-12-12T18:52:43.800Z,29.15
2022-12-12T18:55:10.340Z,22.17
2022-12-12T18:57:36.830Z,25.63
2022-12-12T19:00:06.878Z,29.85
2022-12-12T19:02:38.363Z,25.23
2022-12-12T19:05:05.966Z,20.08
2022-12-12T19:07:32.934Z,20.48
2022-12-12T19:09:59.455Z,23.38
2022-12-12T19:12:25.992Z,22.10
2022-12-12T19:15:15.638Z,22.00
2022-12-12T19:17:39.009Z,21.25
2022-12-12T19:20:06.244Z,17.13
2022-12-12T19:22:45.384Z,17.40
2022-12-12T19:25:12.484Z,19.25
2022-12-12T19:27:39.008Z,17.70
2022-12-12T19:30:06.247Z,20.63
2022-12-12T19:32:32.918Z,25.67
2022-12-12T19:34:59.741Z,22.58
2022-12-12T19:37:26.302Z,21.83
2022-12-12T19:39:52.970Z,19.10
2022-12-12T19:42:20.372Z,18.05
2022-12-12T19:44:46.936Z,19.58
2022-12-12T19:47:13.423Z,28.42
2022-12-12T19:49:39.957Z,17.95
2022-12-12T19:52:12.220Z,19.90
2022-12-12T19:54:40.544Z,20.75
2022-12-12T19:57:07.043Z,24.38
2022-12-12T19:59:33.615Z,28.10
2022-12-12T20:02:01.004Z,20.50
2022-12-12T20:04:30.137Z,25.63
2022-12-12T20:06:56.728Z,22.10
2022-12-12T20:09:28.525Z,26.50
2022-12-12T20:11:57.652Z,20.45
2022-12-12T20:14:27.548Z,23.77
2022-12-12T20:16:55.254Z,17.48
2022-12-12T20:19:23.126Z,22.02
2022-12-12T20:22:00.726Z,18.60
2022-12-12T20:24:28.890Z,17.67
2022-12-12T20:26:56.025Z,17.83
2022-12-12T20:29:23.506Z,20.00
2022-12-12T20:31:50.459Z,24.20
2022-12-12T20:34:19.195Z,19.98
2022-12-12T20:36:46.591Z,24.00
2022-12-12T20:39:22.306Z,21.05
2022-12-12T20:41:50.406Z,19.70
2022-12-12T20:44:18.102Z,15.82
2022-12-12T20:46:46.580Z,17.30
2022-12-12T20:49:16.985Z,20.33
2022-12-12T20:51:59.751Z,27.48
2022-12-12T20:54:28.775Z,22.75
2022-12-12T20:56:56.910Z,22.05
2022-12-12T20:59:24.899Z,18.02
2022-12-12T21:01:51.938Z,17.05
2022-12-12T21:04:18.646Z,21.30
2022-12-12T21:06:48.376Z,22.10
2022-12-12T21:09:22.593Z,19.35
2022-12-12T21:11:52.061Z,20.85
2022-12-12T21:14:18.607Z,24.27
2022-12-12T21:16:45.123Z,26.17
2022-12-12T21:19:13.643Z,25.40
2022-12-12T21:21:42.143Z,25.45
2022-12-12T21:24:09.950Z,18.08
2022-12-12T21:26:36.404Z,18.73
2022-12-12T21:29:04.886Z,18.10
2022-12-12T21:31:34.663Z,19.35
2022-12-12T21:34:01.459Z,20.63
2022-12-12T21:36:29.104Z,18.02
2022-12-12T21:38:57.221Z,18.55
2022-12-12T21:41:23.946Z,15.45
2022-12-12T21:43:51.359Z,16.52
2022-12-12T21:46:24.027Z,19.33
2022-12-12T21:49:09.911Z,18.98
2022-12-12T21:51:36.633Z,18.45
2022-12-12T21:54:04.877Z,23.13
2022-12-12T21:56:31.950Z,23.48
2022-12-12T21:58:59.344Z,24.13
2022-12-12T22:01:26.444Z,19.38
2022-12-12T22:03:53.929Z,18.80
2022-12-12T22:06:23.305Z,19.48
2022-12-12T22:08:50.769Z,15.50
2022-12-12T22:11:39.794Z,20.77
2022-12-12T22:14:06.726Z,18.80
2022-12-12T22:16:33.887Z,22.58
2022-12-12T22:19:05.821Z,22.45
2022-12-12T22:21:33.849Z,18.50
2022-12-12T22:24:01.065Z,24.33
2022-12-12T22:26:29.035Z,20.65
2022-12-12T22:28:58.863Z,23.42
2022-12-12T22:33:56.209Z,24.05
2022-12-12T22:36:34.194Z,18.70
2022-12-12T22:39:01.207Z,21.02
2022-12-12T22:41:29.440Z,21.60
2022-12-12T22:44:01.263Z,20.13
2022-12-12T22:46:28.904Z,18.77
2022-12-12T22:48:59.097Z,19.75
2022-12-12T22:51:28.323Z,20.60
2022-12-12T22:53:56.116Z,15.00
2022-12-12T22:56:23.411Z,20.05
2022-12-12T22:58:49.987Z,19.73
2022-12-12T23:01:19.129Z,19.77
2022-12-12T23:03:46.593Z,16.52
2022-12-12T23:06:21.854Z,23.42
2022-12-12T23:08:54.143Z,18.75
2022-12-12T23:11:22.645Z,22.65
2022-12-12T23:13:49.393Z,22.45
2022-12-12T23:16:21.463Z,23.60
2022-12-12T23:18:48.758Z,25.30
2022-12-12T23:21:18.298Z,25.25
2022-12-12T23:23:46.047Z,25.88
2022-12-12T23:26:15.759Z,33.40
2022-12-12T23:28:43.015Z,25.95
2022-12-12T23:31:16.075Z,27.00
2022-12-12T23:33:42.662Z,29.73
2022-12-12T23:36:10.841Z,30.48
2022-12-12T23:38:37.988Z,22.13
2022-12-12T23:41:06.549Z,27.13
2022-12-12T23:43:33.175Z,24.58
2022-12-12T23:46:07.329Z,26.13
2022-12-12T23:48:34.971Z,23.98
2022-12-12T23:51:01.534Z,24.85
2022-12-12T23:53:31.698Z,21.55
2022-12-12T23:56:03.622Z,20.02
2022-12-12T23:58:30.337Z,30.88
